This is the latest recevied weather packets stored in our database for station/object IU1OLT-7. If no packets are shown the sender has not sent any weather packets the latest 10 day(s).
| Time | Temp. | Humidity | Pressure | Rain* | Wind** | Luminosity | Snow |
|---|---|---|---|---|---|---|---|
| 1788426670 | 31.11° C | 34% | 1026.2 hPa | - | - | - | - |
| 1788425770 | 32.22° C | 35% | 1026.1 hPa | - | - | - | - |
| 1788424870 | 31.67° C | 34% | 1026 hPa | - | - | - | - |
| 1788423977 | 32.78° C | 32% | 1025.9 hPa | - | - | - | - |
| 1788423070 | 35.56° C | 25% | 1025.5 hPa | - | - | - | - |
| 1788422170 | 31.67° C | 28% | 1025.4 hPa | - | - | - | - |
| 1788421270 | 30.56° C | 31% | 1025.1 hPa | - | - | - | - |
| 1788420370 | 28.89° C | 35% | 1025 hPa | - | - | - | - |
| 1788419470 | 27.22° C | 35% | 1024.9 hPa | - | - | - | - |
| 1788418566 | 26.11° C | 39% | 1024.9 hPa | - | - | - | - |
| 1788417666 | 26.67° C | 39% | 1024.9 hPa | - | - | - | - |
| 1788416773 | 26.11° C | 42% | 1024.8 hPa | - | - | - | - |
| 1788415866 | 25.56° C | 44% | 1024.8 hPa | - | - | - | - |
| 1788414966 | 24.44° C | 47% | 1024.7 hPa | - | - | - | - |
| 1788414060 | 22.78° C | 50% | 1024.6 hPa | - | - | - | - |
| 1788413160 | 22.78° C | 53% | 1024.5 hPa | - | - | - | - |
| 1788412260 | 22.78° C | 51% | 1024.4 hPa | - | - | - | - |
| 1788411360 | 22.78° C | 52% | 1024.3 hPa | - | - | - | - |
| 1788410460 | 23.89° C | 47% | 1024.2 hPa | - | - | - | - |
| 1788409560 | 23.89° C | 45% | 1024.4 hPa | - | - | - | - |
| 1788408660 | 23.89° C | 45% | 1024.5 hPa | - | - | - | - |
| 1788407760 | 24.44° C | 48% | 1024.5 hPa | - | - | - | - |
| 1788406860 | 23.89° C | 49% | 1024.4 hPa | - | - | - | - |
| 1788405960 | 24.44° C | 48% | 1024.4 hPa | - | - | - | - |
| 1788405060 | 24.44° C | 49% | 1024.4 hPa | - | - | - | - |
* Rain since midnight (hover to see other rain measurements)
** Current wind speed in m/s (hover to see current wind gust speed)